Date,TemperatureHighF,TemperatureAvgF,TemperatureLowF,DewpointHighF,DewpointAvgF,DewpointLowF,HumidityHigh,HumidityAvg,HumidityLow,PressureMaxIn,PressureMinIn,WindSpeedMaxMPH,WindSpeedAvgMPH,GustSpeedMaxMPH,PrecipitationSumIn
2013-1-1,37,28,13,29,18,7,92,71,60,30.03,29.77,21,4,24,0.00
2013-1-2,28,17,1,18,10,-6,92,78,62,30.30,29.98,22,4,22,0.00
2013-1-3,26,9,-1,20,2,-6,88,76,66,30.30,29.97,10,2,10,0.00
2013-1-4,40,31,20,27,22,11,87,71,54,30.12,29.86,23,3,27,0.00
2013-1-5,38,33,25,28,23,19,89,70,52,30.28,29.93,23,4,25,0.00
2013-1-6,42,35,26,36,28,22,96,81,64,30.27,29.92,19,2,21,0.07
2013-1-7,39,30,19,36,24,15,95,83,67,30.42,30.00,14,3,14,0.01
2013-1-8,42,28,15,30,24,15,100,88,63,30.41,30.31,12,1,14,0.00
2013-1-9,47,34,20,36,29,20,100,84,48,30.45,30.00,31,4,31,0.01
2013-1-10,46,38,27,33,27,24,95,68,56,30.60,30.17,19,5,23,0.00
2013-1-11,41,33,26,39,31,24,100,94,66,30.58,30.09,14,3,15,0.15
2013-1-12,46,42,38,46,42,38,100,100,100,30.17,30.07,13,4,16,0.01
2013-1-13,49,45,39,49,45,39,100,100,100,30.15,29.84,21,5,21,0.02
2013-1-14,49,43,35,49,36,24,100,81,60,30.37,29.84,21,6,22,0.02
2013-1-15,38,34,31,28,25,22,81,72,58,30.39,30.09,12,2,13,0.00
2013-1-16,33,31,29,33,30,25,100,97,79,30.26,29.83,3,0,4,0.00
2013-1-17,38,31,21,38,24,5,100,78,55,30.37,29.86,16,3,18,0.16
2013-1-18,29,20,14,12,7,-4,72,59,39,30.45,30.11,25,4,27,0.00
2013-1-19,45,40,26,30,25,11,67,56,50,30.28,29.58,26,7,28,0.10
2013-1-20,46,34,21,36,22,11,85,62,34,30.09,29.55,32,7,32,0.00
2013-1-21,27,23,16,21,14,0,90,72,50,30.10,29.80,14,3,14,0.00
2013-1-22,22,15,4,18,5,-5,91,67,39,30.23,29.80,25,5,29,0.00
2013-1-23,11,7,2,2,-4,-7,78,65,49,30.26,30.15,21,3,23,0.00
2013-1-24,16,8,-1,4,-2,-6,85,67,44,30.45,30.16,29,4,32,0.00
2013-1-25,18,12,6,13,3,-3,95,69,48,30.46,30.10,14,4,16,0.00
2013-1-26,21,14,9,11,7,2,96,77,52,30.51,30.10,17,3,21,0.00
2013-1-27,29,17,5,10,4,0,96,62,31,30.56,30.38,12,2,15,0.00
2013-1-28,33,25,16,33,20,6,100,85,57,30.53,29.97,12,2,14,0.00
2013-1-29,46,33,27,43,33,27,100,100,98,30.18,29.78,23,2,23,0.42
2013-1-30,59,52,41,59,52,41,100,100,97,30.03,28.85,39,8,40,1.09
2013-1-31,56,40,26,56,33,9,100,80,50,29.79,28.86,29,7,33,1.09